sensor_id;sensor_type;location;lat;lon;timestamp;P1;durP1;ratioP1;P2;durP2;ratioP2
60078;SDS011;45951;45.824;8.824;2023-04-12T00:01:54;8.52;;;5.20;;
60078;SDS011;45951;45.824;8.824;2023-04-12T00:07:55;7.20;;;5.32;;
60078;SDS011;45951;45.824;8.824;2023-04-12T00:13:56;9.13;;;5.75;;
60078;SDS011;45951;45.824;8.824;2023-04-12T00:19:56;8.45;;;5.63;;
60078;SDS011;45951;45.824;8.824;2023-04-12T00:25:57;10.10;;;5.93;;
60078;SDS011;45951;45.824;8.824;2023-04-12T00:31:58;8.25;;;5.55;;
60078;SDS011;45951;45.824;8.824;2023-04-12T00:38:02;8.80;;;5.18;;
60078;SDS011;45951;45.824;8.824;2023-04-12T00:44:05;7.00;;;5.18;;
60078;SDS011;45951;45.824;8.824;2023-04-12T00:50:06;8.57;;;5.93;;
60078;SDS011;45951;45.824;8.824;2023-04-12T00:56:08;9.25;;;6.18;;
60078;SDS011;45951;45.824;8.824;2023-04-12T01:02:10;9.40;;;6.30;;
60078;SDS011;45951;45.824;8.824;2023-04-12T01:08:18;7.18;;;5.22;;
60078;SDS011;45951;45.824;8.824;2023-04-12T01:14:30;8.32;;;5.55;;
60078;SDS011;45951;45.824;8.824;2023-04-12T01:20:36;10.70;;;6.47;;
60078;SDS011;45951;45.824;8.824;2023-04-12T01:26:44;11.15;;;6.15;;
60078;SDS011;45951;45.824;8.824;2023-04-12T01:32:47;8.63;;;6.78;;
60078;SDS011;45951;45.824;8.824;2023-04-12T01:38:50;9.57;;;6.53;;
60078;SDS011;45951;45.824;8.824;2023-04-12T01:44:51;10.15;;;7.05;;
60078;SDS011;45951;45.824;8.824;2023-04-12T01:51:04;9.10;;;6.38;;
60078;SDS011;45951;45.824;8.824;2023-04-12T01:57:06;12.00;;;6.90;;
60078;SDS011;45951;45.824;8.824;2023-04-12T02:03:07;9.57;;;7.15;;
60078;SDS011;45951;45.824;8.824;2023-04-12T02:09:08;11.13;;;7.13;;
60078;SDS011;45951;45.824;8.824;2023-04-12T02:15:10;10.52;;;7.85;;
60078;SDS011;45951;45.824;8.824;2023-04-12T02:21:15;12.00;;;7.50;;
60078;SDS011;45951;45.824;8.824;2023-04-12T02:27:15;12.63;;;7.95;;
60078;SDS011;45951;45.824;8.824;2023-04-12T02:33:17;12.63;;;8.20;;
60078;SDS011;45951;45.824;8.824;2023-04-12T02:39:20;10.85;;;8.70;;
60078;SDS011;45951;45.824;8.824;2023-04-12T02:45:21;13.23;;;8.50;;
60078;SDS011;45951;45.824;8.824;2023-04-12T02:51:21;13.68;;;8.82;;
60078;SDS011;45951;45.824;8.824;2023-04-12T02:57:21;11.27;;;8.52;;
60078;SDS011;45951;45.824;8.824;2023-04-12T03:03:22;13.48;;;9.35;;
60078;SDS011;45951;45.824;8.824;2023-04-12T03:09:23;13.75;;;9.90;;
60078;SDS011;45951;45.824;8.824;2023-04-12T03:15:24;16.02;;;10.27;;
60078;SDS011;45951;45.824;8.824;2023-04-12T03:21:27;13.50;;;9.30;;
60078;SDS011;45951;45.824;8.824;2023-04-12T03:27:27;13.43;;;9.60;;
60078;SDS011;45951;45.824;8.824;2023-04-12T03:33:27;14.80;;;10.15;;
60078;SDS011;45951;45.824;8.824;2023-04-12T03:39:28;14.65;;;10.45;;
60078;SDS011;45951;45.824;8.824;2023-04-12T03:45:28;12.70;;;8.15;;
60078;SDS011;45951;45.824;8.824;2023-04-12T03:51:28;12.52;;;9.20;;
60078;SDS011;45951;45.824;8.824;2023-04-12T03:57:29;13.80;;;8.80;;
60078;SDS011;45951;45.824;8.824;2023-04-12T04:03:29;12.48;;;7.82;;
60078;SDS011;45951;45.824;8.824;2023-04-12T04:09:33;12.70;;;8.73;;
60078;SDS011;45951;45.824;8.824;2023-04-12T04:15:34;13.45;;;9.10;;
60078;SDS011;45951;45.824;8.824;2023-04-12T04:21:34;12.30;;;8.67;;
60078;SDS011;45951;45.824;8.824;2023-04-12T04:27:35;13.70;;;8.83;;
60078;SDS011;45951;45.824;8.824;2023-04-12T04:33:37;14.38;;;8.85;;
60078;SDS011;45951;45.824;8.824;2023-04-12T04:39:38;14.25;;;9.65;;
60078;SDS011;45951;45.824;8.824;2023-04-12T04:45:38;13.20;;;9.00;;
60078;SDS011;45951;45.824;8.824;2023-04-12T04:51:40;14.02;;;9.48;;
60078;SDS011;45951;45.824;8.824;2023-04-12T04:57:40;12.23;;;9.18;;
60078;SDS011;45951;45.824;8.824;2023-04-12T05:03:41;15.52;;;10.82;;
60078;SDS011;45951;45.824;8.824;2023-04-12T05:09:43;16.13;;;9.40;;
60078;SDS011;45951;45.824;8.824;2023-04-12T05:15:43;15.50;;;10.07;;
60078;SDS011;45951;45.824;8.824;2023-04-12T05:21:44;14.07;;;10.63;;
60078;SDS011;45951;45.824;8.824;2023-04-12T05:27:44;13.82;;;7.10;;
60078;SDS011;45951;45.824;8.824;2023-04-12T05:33:44;14.57;;;10.20;;
60078;SDS011;45951;45.824;8.824;2023-04-12T05:39:45;13.90;;;9.98;;
60078;SDS011;45951;45.824;8.824;2023-04-12T05:45:45;15.57;;;9.63;;
60078;SDS011;45951;45.824;8.824;2023-04-12T05:51:45;14.43;;;9.82;;
60078;SDS011;45951;45.824;8.824;2023-04-12T05:57:46;18.30;;;10.57;;
60078;SDS011;45951;45.824;8.824;2023-04-12T06:03:46;18.07;;;9.90;;
60078;SDS011;45951;45.824;8.824;2023-04-12T06:09:47;19.42;;;10.57;;
60078;SDS011;45951;45.824;8.824;2023-04-12T06:15:48;15.23;;;9.40;;
60078;SDS011;45951;45.824;8.824;2023-04-12T06:21:50;14.38;;;9.93;;
60078;SDS011;45951;45.824;8.824;2023-04-12T06:27:50;17.10;;;10.30;;
60078;SDS011;45951;45.824;8.824;2023-04-12T06:33:50;15.97;;;10.23;;
60078;SDS011;45951;45.824;8.824;2023-04-12T06:39:51;16.63;;;9.30;;
60078;SDS011;45951;45.824;8.824;2023-04-12T06:45:51;14.77;;;9.45;;
60078;SDS011;45951;45.824;8.824;2023-04-12T06:51:52;17.73;;;10.05;;
60078;SDS011;45951;45.824;8.824;2023-04-12T06:57:52;15.00;;;9.93;;
60078;SDS011;45951;45.824;8.824;2023-04-12T07:03:52;16.40;;;9.68;;
60078;SDS011;45951;45.824;8.824;2023-04-12T07:09:52;15.82;;;9.82;;
60078;SDS011;45951;45.824;8.824;2023-04-12T07:15:53;15.77;;;9.17;;
60078;SDS011;45951;45.824;8.824;2023-04-12T07:21:53;16.37;;;9.40;;
60078;SDS011;45951;45.824;8.824;2023-04-12T07:27:54;15.80;;;9.50;;
60078;SDS011;45951;45.824;8.824;2023-04-12T07:33:54;16.48;;;10.00;;
60078;SDS011;45951;45.824;8.824;2023-04-12T07:39:55;16.35;;;10.13;;
60078;SDS011;45951;45.824;8.824;2023-04-12T07:45:55;17.17;;;9.55;;
60078;SDS011;45951;45.824;8.824;2023-04-12T07:51:56;19.57;;;9.60;;
60078;SDS011;45951;45.824;8.824;2023-04-12T07:57:56;17.13;;;10.23;;
60078;SDS011;45951;45.824;8.824;2023-04-12T08:03:56;16.25;;;10.07;;
60078;SDS011;45951;45.824;8.824;2023-04-12T08:09:57;17.65;;;9.65;;
60078;SDS011;45951;45.824;8.824;2023-04-12T08:15:57;19.15;;;10.15;;
60078;SDS011;45951;45.824;8.824;2023-04-12T08:21:57;21.27;;;10.45;;
60078;SDS011;45951;45.824;8.824;2023-04-12T08:27:58;19.50;;;10.45;;
60078;SDS011;45951;45.824;8.824;2023-04-12T08:33:58;16.92;;;10.52;;
60078;SDS011;45951;45.824;8.824;2023-04-12T08:40:01;16.25;;;10.10;;
60078;SDS011;45951;45.824;8.824;2023-04-12T08:46:03;19.88;;;10.10;;
60078;SDS011;45951;45.824;8.824;2023-04-12T08:52:05;21.30;;;10.45;;
60078;SDS011;45951;45.824;8.824;2023-04-12T08:58:06;18.88;;;10.00;;
60078;SDS011;45951;45.824;8.824;2023-04-12T09:04:08;22.02;;;10.48;;
60078;SDS011;45951;45.824;8.824;2023-04-12T09:10:08;21.15;;;11.55;;
60078;SDS011;45951;45.824;8.824;2023-04-12T09:16:09;22.77;;;10.98;;
60078;SDS011;45951;45.824;8.824;2023-04-12T09:22:09;20.08;;;10.90;;
60078;SDS011;45951;45.824;8.824;2023-04-12T09:28:17;18.17;;;10.55;;
60078;SDS011;45951;45.824;8.824;2023-04-12T09:34:19;18.27;;;11.23;;
60078;SDS011;45951;45.824;8.824;2023-04-12T09:40:22;19.10;;;11.27;;
60078;SDS011;45951;45.824;8.824;2023-04-12T09:46:23;17.75;;;10.75;;
60078;SDS011;45951;45.824;8.824;2023-04-12T09:52:23;18.23;;;11.03;;
60078;SDS011;45951;45.824;8.824;2023-04-12T09:58:35;21.30;;;11.82;;
60078;SDS011;45951;45.824;8.824;2023-04-12T10:04:36;18.52;;;11.82;;
60078;SDS011;45951;45.824;8.824;2023-04-12T10:10:38;18.80;;;11.57;;
60078;SDS011;45951;45.824;8.824;2023-04-12T10:16:39;17.40;;;10.87;;
60078;SDS011;45951;45.824;8.824;2023-04-12T10:22:47;21.42;;;11.02;;
60078;SDS011;45951;45.824;8.824;2023-04-12T10:35:26;20.83;;;11.73;;
60078;SDS011;45951;45.824;8.824;2023-04-12T10:41:27;17.95;;;11.48;;
60078;SDS011;45951;45.824;8.824;2023-04-12T10:53:47;19.35;;;11.57;;
60078;SDS011;45951;45.824;8.824;2023-04-12T10:59:53;17.52;;;11.20;;
60078;SDS011;45951;45.824;8.824;2023-04-12T11:18:04;15.30;;;11.63;;
60078;SDS011;45951;45.824;8.824;2023-04-12T11:24:05;36.92;;;12.95;;
60078;SDS011;45951;45.824;8.824;2023-04-12T11:30:06;18.75;;;11.98;;
60078;SDS011;45951;45.824;8.824;2023-04-12T11:36:08;19.08;;;11.65;;
60078;SDS011;45951;45.824;8.824;2023-04-12T11:42:12;18.83;;;12.45;;
60078;SDS011;45951;45.824;8.824;2023-04-12T11:48:16;24.38;;;12.25;;
60078;SDS011;45951;45.824;8.824;2023-04-12T11:54:16;17.65;;;11.23;;
60078;SDS011;45951;45.824;8.824;2023-04-12T12:00:16;21.15;;;11.57;;
60078;SDS011;45951;45.824;8.824;2023-04-12T12:06:17;18.80;;;11.07;;
60078;SDS011;45951;45.824;8.824;2023-04-12T12:12:18;18.20;;;12.13;;
60078;SDS011;45951;45.824;8.824;2023-04-12T12:18:23;17.15;;;11.85;;
60078;SDS011;45951;45.824;8.824;2023-04-12T12:24:24;20.13;;;12.50;;
60078;SDS011;45951;45.824;8.824;2023-04-12T12:30:25;19.73;;;11.70;;
60078;SDS011;45951;45.824;8.824;2023-04-12T12:36:33;30.17;;;18.65;;
60078;SDS011;45951;45.824;8.824;2023-04-12T12:42:34;19.40;;;13.90;;
60078;SDS011;45951;45.824;8.824;2023-04-12T12:48:44;20.30;;;16.20;;
60078;SDS011;45951;45.824;8.824;2023-04-12T12:54:45;21.63;;;12.93;;
60078;SDS011;45951;45.824;8.824;2023-04-12T13:00:46;25.23;;;13.10;;
60078;SDS011;45951;45.824;8.824;2023-04-12T13:06:46;16.55;;;11.52;;
60078;SDS011;45951;45.824;8.824;2023-04-12T13:12:46;23.97;;;13.33;;
60078;SDS011;45951;45.824;8.824;2023-04-12T13:18:47;23.48;;;13.13;;
60078;SDS011;45951;45.824;8.824;2023-04-12T13:24:47;19.48;;;12.80;;
60078;SDS011;45951;45.824;8.824;2023-04-12T13:30:48;20.27;;;12.95;;
60078;SDS011;45951;45.824;8.824;2023-04-12T13:36:48;28.15;;;13.23;;
60078;SDS011;45951;45.824;8.824;2023-04-12T13:42:49;19.50;;;14.05;;
60078;SDS011;45951;45.824;8.824;2023-04-12T13:48:50;23.10;;;13.57;;
60078;SDS011;45951;45.824;8.824;2023-04-12T13:54:50;17.17;;;13.00;;
60078;SDS011;45951;45.824;8.824;2023-04-12T14:00:50;19.73;;;13.82;;
60078;SDS011;45951;45.824;8.824;2023-04-12T14:06:53;19.05;;;13.23;;
60078;SDS011;45951;45.824;8.824;2023-04-12T14:12:53;18.10;;;12.85;;
60078;SDS011;45951;45.824;8.824;2023-04-12T14:18:53;19.25;;;13.88;;
60078;SDS011;45951;45.824;8.824;2023-04-12T14:24:54;19.05;;;12.63;;
60078;SDS011;45951;45.824;8.824;2023-04-12T14:30:54;20.55;;;14.82;;
60078;SDS011;45951;45.824;8.824;2023-04-12T14:36:54;19.43;;;13.17;;
60078;SDS011;45951;45.824;8.824;2023-04-12T14:42:55;23.47;;;13.60;;
60078;SDS011;45951;45.824;8.824;2023-04-12T14:48:55;19.88;;;13.68;;
60078;SDS011;45951;45.824;8.824;2023-04-12T14:54:58;20.95;;;14.05;;
60078;SDS011;45951;45.824;8.824;2023-04-12T15:01:00;20.50;;;14.65;;
60078;SDS011;45951;45.824;8.824;2023-04-12T15:07:00;21.47;;;14.13;;
60078;SDS011;45951;45.824;8.824;2023-04-12T15:13:00;22.67;;;14.43;;
60078;SDS011;45951;45.824;8.824;2023-04-12T15:19:01;21.40;;;14.52;;
60078;SDS011;45951;45.824;8.824;2023-04-12T15:25:02;21.73;;;14.53;;
60078;SDS011;45951;45.824;8.824;2023-04-12T15:31:03;19.13;;;13.77;;
60078;SDS011;45951;45.824;8.824;2023-04-12T15:37:03;20.13;;;12.57;;
60078;SDS011;45951;45.824;8.824;2023-04-12T15:43:04;20.77;;;13.77;;
60078;SDS011;45951;45.824;8.824;2023-04-12T15:49:04;21.08;;;14.18;;
60078;SDS011;45951;45.824;8.824;2023-04-12T15:55:05;22.40;;;14.30;;
60078;SDS011;45951;45.824;8.824;2023-04-12T16:01:06;23.08;;;15.70;;
60078;SDS011;45951;45.824;8.824;2023-04-12T16:07:06;22.83;;;15.60;;
60078;SDS011;45951;45.824;8.824;2023-04-12T16:13:07;24.00;;;15.32;;
60078;SDS011;45951;45.824;8.824;2023-04-12T16:19:09;22.08;;;15.15;;
60078;SDS011;45951;45.824;8.824;2023-04-12T16:25:10;21.27;;;15.15;;
60078;SDS011;45951;45.824;8.824;2023-04-12T16:31:11;24.90;;;15.70;;
60078;SDS011;45951;45.824;8.824;2023-04-12T16:37:14;24.10;;;16.17;;
60078;SDS011;45951;45.824;8.824;2023-04-12T16:43:15;26.35;;;19.38;;
60078;SDS011;45951;45.824;8.824;2023-04-12T16:49:16;20.58;;;15.43;;
60078;SDS011;45951;45.824;8.824;2023-04-12T16:55:16;23.38;;;15.73;;
60078;SDS011;45951;45.824;8.824;2023-04-12T17:01:16;23.23;;;15.85;;
60078;SDS011;45951;45.824;8.824;2023-04-12T17:07:18;23.65;;;15.88;;
60078;SDS011;45951;45.824;8.824;2023-04-12T17:13:18;27.80;;;16.80;;
60078;SDS011;45951;45.824;8.824;2023-04-12T17:19:18;23.20;;;16.92;;
60078;SDS011;45951;45.824;8.824;2023-04-12T17:25:19;23.58;;;16.38;;
60078;SDS011;45951;45.824;8.824;2023-04-12T17:31:20;24.60;;;15.80;;
60078;SDS011;45951;45.824;8.824;2023-04-12T17:37:22;21.83;;;15.65;;
60078;SDS011;45951;45.824;8.824;2023-04-12T17:43:22;24.88;;;16.40;;
60078;SDS011;45951;45.824;8.824;2023-04-12T17:49:23;23.67;;;16.80;;
60078;SDS011;45951;45.824;8.824;2023-04-12T17:55:24;24.48;;;16.10;;
60078;SDS011;45951;45.824;8.824;2023-04-12T18:01:25;26.67;;;16.90;;
60078;SDS011;45951;45.824;8.824;2023-04-12T18:07:26;27.13;;;17.77;;
60078;SDS011;45951;45.824;8.824;2023-04-12T18:13:27;28.20;;;18.27;;
60078;SDS011;45951;45.824;8.824;2023-04-12T18:19:27;27.13;;;19.03;;
60078;SDS011;45951;45.824;8.824;2023-04-12T18:25:28;27.13;;;17.88;;
60078;SDS011;45951;45.824;8.824;2023-04-12T18:31:28;26.10;;;17.52;;
60078;SDS011;45951;45.824;8.824;2023-04-12T18:37:28;32.47;;;21.48;;
60078;SDS011;45951;45.824;8.824;2023-04-12T18:43:29;28.50;;;19.17;;
60078;SDS011;45951;45.824;8.824;2023-04-12T18:49:29;30.08;;;21.63;;
60078;SDS011;45951;45.824;8.824;2023-04-12T18:55:30;27.37;;;18.77;;
60078;SDS011;45951;45.824;8.824;2023-04-12T19:01:30;32.92;;;20.08;;
60078;SDS011;45951;45.824;8.824;2023-04-12T19:07:31;30.63;;;20.65;;
60078;SDS011;45951;45.824;8.824;2023-04-12T19:13:41;30.25;;;19.63;;
60078;SDS011;45951;45.824;8.824;2023-04-12T19:19:51;32.15;;;21.08;;
60078;SDS011;45951;45.824;8.824;2023-04-12T19:25:51;30.25;;;20.95;;
60078;SDS011;45951;45.824;8.824;2023-04-12T19:31:52;29.45;;;20.42;;
60078;SDS011;45951;45.824;8.824;2023-04-12T19:37:53;30.57;;;21.03;;
60078;SDS011;45951;45.824;8.824;2023-04-12T19:43:53;25.42;;;18.73;;
60078;SDS011;45951;45.824;8.824;2023-04-12T19:49:54;31.97;;;20.17;;
60078;SDS011;45951;45.824;8.824;2023-04-12T19:55:55;30.00;;;19.95;;
60078;SDS011;45951;45.824;8.824;2023-04-12T20:01:56;34.15;;;20.90;;
60078;SDS011;45951;45.824;8.824;2023-04-12T20:07:57;33.95;;;22.05;;
60078;SDS011;45951;45.824;8.824;2023-04-12T20:13:57;31.07;;;21.43;;
60078;SDS011;45951;45.824;8.824;2023-04-12T20:19:58;36.47;;;21.80;;
60078;SDS011;45951;45.824;8.824;2023-04-12T20:26:00;28.50;;;19.88;;
60078;SDS011;45951;45.824;8.824;2023-04-12T20:32:01;28.77;;;19.65;;
60078;SDS011;45951;45.824;8.824;2023-04-12T20:38:01;31.17;;;19.73;;
60078;SDS011;45951;45.824;8.824;2023-04-12T20:44:03;26.92;;;18.38;;
60078;SDS011;45951;45.824;8.824;2023-04-12T20:50:03;25.27;;;16.10;;
60078;SDS011;45951;45.824;8.824;2023-04-12T20:56:04;28.17;;;19.38;;
60078;SDS011;45951;45.824;8.824;2023-04-12T21:02:06;28.77;;;19.00;;
60078;SDS011;45951;45.824;8.824;2023-04-12T21:08:08;27.73;;;18.98;;
60078;SDS011;45951;45.824;8.824;2023-04-12T21:14:09;30.33;;;20.23;;
60078;SDS011;45951;45.824;8.824;2023-04-12T21:20:09;24.70;;;16.53;;
60078;SDS011;45951;45.824;8.824;2023-04-12T21:26:12;24.00;;;16.60;;
60078;SDS011;45951;45.824;8.824;2023-04-12T21:32:13;25.60;;;17.25;;
60078;SDS011;45951;45.824;8.824;2023-04-12T21:38:15;25.00;;;16.20;;
60078;SDS011;45951;45.824;8.824;2023-04-12T21:44:16;27.17;;;17.65;;
60078;SDS011;45951;45.824;8.824;2023-04-12T21:50:17;25.52;;;16.65;;
60078;SDS011;45951;45.824;8.824;2023-04-12T21:56:17;19.17;;;12.10;;
60078;SDS011;45951;45.824;8.824;2023-04-12T22:02:17;24.00;;;15.80;;
60078;SDS011;45951;45.824;8.824;2023-04-12T22:08:18;27.98;;;18.50;;
60078;SDS011;45951;45.824;8.824;2023-04-12T22:14:19;25.65;;;16.30;;
60078;SDS011;45951;45.824;8.824;2023-04-12T22:20:19;25.73;;;17.15;;
60078;SDS011;45951;45.824;8.824;2023-04-12T22:26:19;27.02;;;16.67;;
60078;SDS011;45951;45.824;8.824;2023-04-12T22:32:20;23.73;;;15.50;;
60078;SDS011;45951;45.824;8.824;2023-04-12T22:38:20;25.15;;;15.75;;
60078;SDS011;45951;45.824;8.824;2023-04-12T22:44:21;21.85;;;11.63;;
60078;SDS011;45951;45.824;8.824;2023-04-12T22:50:22;23.95;;;15.55;;
60078;SDS011;45951;45.824;8.824;2023-04-12T22:56:24;21.17;;;14.48;;
60078;SDS011;45951;45.824;8.824;2023-04-12T23:02:25;21.80;;;14.98;;
60078;SDS011;45951;45.824;8.824;2023-04-12T23:08:25;22.95;;;14.50;;
60078;SDS011;45951;45.824;8.824;2023-04-12T23:14:27;20.92;;;13.70;;
60078;SDS011;45951;45.824;8.824;2023-04-12T23:20:28;22.00;;;14.43;;
60078;SDS011;45951;45.824;8.824;2023-04-12T23:26:29;21.83;;;15.13;;
60078;SDS011;45951;45.824;8.824;2023-04-12T23:32:29;22.93;;;14.57;;
60078;SDS011;45951;45.824;8.824;2023-04-12T23:38:30;22.85;;;14.30;;
60078;SDS011;45951;45.824;8.824;2023-04-12T23:44:32;20.95;;;14.00;;
60078;SDS011;45951;45.824;8.824;2023-04-12T23:50:32;22.23;;;13.93;;
60078;SDS011;45951;45.824;8.824;2023-04-12T23:56:33;22.13;;;14.90;;
